createdAt,value
2022-08-17T00:01:20.725Z,43.40
2022-08-17T00:03:51.251Z,43.53
2022-08-17T00:06:23.128Z,43.40
2022-08-17T00:08:52.118Z,43.49
2022-08-17T00:11:28.604Z,44.01
2022-08-17T00:14:00.091Z,43.75
2022-08-17T00:16:55.568Z,43.62
2022-08-17T00:19:24.387Z,43.20
2022-08-17T00:22:34.181Z,43.11
2022-08-17T00:24:40.284Z,43.61
2022-08-17T00:27:06.885Z,43.72
2022-08-17T00:29:33.525Z,43.63
2022-08-17T00:32:01.810Z,43.67
2022-08-17T00:34:48.391Z,42.98
2022-08-17T00:37:14.967Z,43.29
2022-08-17T00:39:41.701Z,43.01
2022-08-17T00:42:18.267Z,43.29
2022-08-17T00:44:45.225Z,43.26
2022-08-17T00:47:11.837Z,43.29
2022-08-17T00:49:38.435Z,43.36
2022-08-17T00:52:11.940Z,43.86
2022-08-17T00:54:42.108Z,43.74
2022-08-17T00:57:11.267Z,43.31
2022-08-17T00:59:40.269Z,43.33
2022-08-17T01:02:08.553Z,43.48
2022-08-17T01:04:35.192Z,43.31
2022-08-17T01:07:02.045Z,42.86
2022-08-17T01:09:28.640Z,43.05
2022-08-17T01:11:55.275Z,43.53
2022-08-17T01:14:22.418Z,43.47
2022-08-17T01:16:50.614Z,43.53
2022-08-17T01:19:20.270Z,44.55
2022-08-17T01:22:11.157Z,44.29
2022-08-17T01:24:39.820Z,43.64
2022-08-17T01:27:10.449Z,43.84
2022-08-17T01:29:37.884Z,43.43
2022-08-17T01:32:05.570Z,43.41
2022-08-17T01:34:42.428Z,43.88
2022-08-17T01:37:09.901Z,43.61
2022-08-17T01:39:39.420Z,43.57
2022-08-17T01:42:08.911Z,43.70
2022-08-17T01:44:36.964Z,43.56
2022-08-17T01:47:05.707Z,43.35
2022-08-17T01:49:32.347Z,43.81
2022-08-17T01:52:03.940Z,43.95
2022-08-17T01:54:30.530Z,43.87
2022-08-17T01:56:57.119Z,44.09
2022-08-17T01:59:23.730Z,43.61
2022-08-17T02:01:50.693Z,43.84
2022-08-17T02:04:17.422Z,44.10
2022-08-17T02:06:52.697Z,44.13
2022-08-17T02:09:25.144Z,43.84
2022-08-17T02:11:56.401Z,43.99
2022-08-17T02:14:23.601Z,43.78
2022-08-17T02:16:50.171Z,44.16
2022-08-17T02:19:16.949Z,44.12
2022-08-17T02:21:45.970Z,44.12
2022-08-17T02:24:16.452Z,44.24
2022-08-17T02:26:43.269Z,43.82
2022-08-17T02:29:09.879Z,43.96
2022-08-17T02:31:36.495Z,43.83
2022-08-17T02:34:04.695Z,44.05
2022-08-17T02:36:35.072Z,43.74
2022-08-17T02:39:06.190Z,44.15
2022-08-17T02:41:33.020Z,44.43
2022-08-17T02:43:59.672Z,44.26
2022-08-17T02:46:26.363Z,44.64
2022-08-17T02:48:52.984Z,44.81
2022-08-17T02:51:20.073Z,44.41
2022-08-17T02:53:46.866Z,43.81
2022-08-17T02:56:14.715Z,44.17
2022-08-17T02:58:41.340Z,44.09
2022-08-17T03:01:08.934Z,44.44
2022-08-17T03:03:35.925Z,44.50
2022-08-17T03:06:02.623Z,44.57
2022-08-17T03:08:29.677Z,44.61
2022-08-17T03:10:56.324Z,44.38
2022-08-17T03:13:22.952Z,44.44
2022-08-17T03:15:50.608Z,44.33
2022-08-17T03:18:24.762Z,44.55
2022-08-17T03:20:59.776Z,44.52
2022-08-17T03:23:27.208Z,44.43
2022-08-17T03:25:54.418Z,45.07
2022-08-17T03:28:21.783Z,44.93
2022-08-17T03:30:48.441Z,45.09
2022-08-17T03:33:16.901Z,45.07
2022-08-17T03:35:43.703Z,45.20
2022-08-17T03:38:10.783Z,45.14
2022-08-17T03:40:56.753Z,45.21
2022-08-17T03:43:24.107Z,45.33
2022-08-17T03:46:10.800Z,45.36
2022-08-17T03:49:14.418Z,45.57
2022-08-17T03:51:59.803Z,45.56
2022-08-17T03:54:44.667Z,45.48
2022-08-17T03:57:12.041Z,45.41
2022-08-17T03:59:39.118Z,45.50
2022-08-17T04:02:09.505Z,44.56
2022-08-17T04:04:36.296Z,44.15
2022-08-17T04:07:02.894Z,43.74
2022-08-17T04:09:29.519Z,44.38
2022-08-17T04:11:57.305Z,44.33
2022-08-17T04:14:31.231Z,44.27
2022-08-17T04:16:57.884Z,44.41
2022-08-17T04:19:24.476Z,44.91
2022-08-17T04:21:50.920Z,44.75
2022-08-17T04:24:17.502Z,45.07
2022-08-17T04:26:52.464Z,44.75
2022-08-17T04:29:21.365Z,45.35
2022-08-17T04:31:48.109Z,45.37
2022-08-17T04:34:14.782Z,45.21
2022-08-17T04:36:50.284Z,44.94
2022-08-17T04:39:17.196Z,45.08
2022-08-17T04:42:02.500Z,45.25
2022-08-17T04:44:37.529Z,45.15
2022-08-17T04:47:05.167Z,44.91
2022-08-17T04:49:32.600Z,45.15
2022-08-17T04:52:04.329Z,44.65
2022-08-17T04:54:31.337Z,45.01
2022-08-17T04:56:57.951Z,45.07
2022-08-17T04:59:24.584Z,44.91
2022-08-17T05:01:51.587Z,44.83
2022-08-17T05:04:32.922Z,44.80
2022-08-17T05:07:01.982Z,44.46
2022-08-17T05:09:29.042Z,44.83
2022-08-17T05:11:56.280Z,44.67
2022-08-17T05:14:33.376Z,44.42
2022-08-17T05:17:01.264Z,44.00
2022-08-17T05:19:28.787Z,44.35
2022-08-17T05:21:55.412Z,43.94
2022-08-17T05:24:38.419Z,43.63
2022-08-17T05:27:06.116Z,43.75
2022-08-17T05:29:35.605Z,43.23
2022-08-17T05:32:38.089Z,43.63
2022-08-17T05:35:01.740Z,43.12
2022-08-17T05:37:28.357Z,42.32
2022-08-17T05:39:55.040Z,41.65
2022-08-17T05:42:21.661Z,41.17
2022-08-17T05:44:48.511Z,41.43
2022-08-17T05:47:15.115Z,41.00
2022-08-17T05:49:41.748Z,41.20
2022-08-17T05:52:18.798Z,40.96
2022-08-17T05:54:49.380Z,40.08
2022-08-17T05:57:36.537Z,38.81
2022-08-17T06:00:20.637Z,38.57
2022-08-17T06:03:24.747Z,37.95
2022-08-17T06:06:09.520Z,33.68
2022-08-17T06:08:55.342Z,33.79
2022-08-17T06:11:39.428Z,33.30
2022-08-17T06:14:18.787Z,32.85
2022-08-17T06:16:47.992Z,33.47
2022-08-17T06:19:32.100Z,32.48
2022-08-17T06:21:58.740Z,32.98
2022-08-17T06:24:25.319Z,31.28
2022-08-17T06:26:52.212Z,29.99
2022-08-17T06:29:38.837Z,30.71
2022-08-17T06:32:05.953Z,30.31
2022-08-17T06:34:32.671Z,30.74
2022-08-17T06:37:13.457Z,31.73
2022-08-17T06:40:02.457Z,31.05
2022-08-17T06:43:02.398Z,30.87
2022-08-17T06:45:41.892Z,29.86
2022-08-17T06:48:15.366Z,28.42
2022-08-17T06:50:51.035Z,27.41
2022-08-17T06:53:40.742Z,26.51
2022-08-17T06:56:14.609Z,24.47
2022-08-17T06:58:43.044Z,22.97
2022-08-17T07:01:17.956Z,21.41
2022-08-17T07:03:54.787Z,22.18
2022-08-17T07:06:23.873Z,22.13
2022-08-17T07:09:01.084Z,22.25
2022-08-17T07:11:36.200Z,21.76
2022-08-17T07:14:25.856Z,20.99
2022-08-17T07:16:53.845Z,21.78
2022-08-17T07:19:22.743Z,20.55
2022-08-17T07:22:10.735Z,20.93
2022-08-17T07:24:57.452Z,21.63
2022-08-17T07:27:25.103Z,21.16
2022-08-17T07:30:03.775Z,19.58
2022-08-17T07:33:13.369Z,21.25
2022-08-17T07:35:44.346Z,19.16
2022-08-17T07:38:25.282Z,18.02
2022-08-17T07:41:02.805Z,16.87
2022-08-17T07:43:31.189Z,17.32
2022-08-17T07:46:38.697Z,17.74
2022-08-17T07:49:07.518Z,16.31
2022-08-17T07:51:56.681Z,16.44
2022-08-17T07:54:30.895Z,16.22
2022-08-17T07:57:03.647Z,17.43
2022-08-17T07:59:34.561Z,16.81
2022-08-17T08:02:15.685Z,17.13
2022-08-17T08:05:00.697Z,17.01
2022-08-17T08:07:50.593Z,16.52
2022-08-17T08:10:32.535Z,16.51
2022-08-17T08:13:14.988Z,16.35
2022-08-17T08:15:53.557Z,16.31
2022-08-17T08:18:38.562Z,14.63
2022-08-17T08:21:47.587Z,14.06
2022-08-17T08:24:42.132Z,14.06
2022-08-17T08:27:20.027Z,14.40
2022-08-17T08:30:06.916Z,13.53
2022-08-17T08:33:11.159Z,13.02
2022-08-17T08:35:40.407Z,14.18
2022-08-17T08:38:09.991Z,14.21
2022-08-17T08:40:45.534Z,14.44
2022-08-17T08:43:24.461Z,14.35
2022-08-17T08:46:24.418Z,13.77
2022-08-17T08:49:14.537Z,14.21
2022-08-17T08:52:00.941Z,14.42
2022-08-17T08:54:36.667Z,14.40
2022-08-17T08:57:26.782Z,14.01
2022-08-17T09:00:13.046Z,14.80
2022-08-17T09:03:28.111Z,15.41
2022-08-17T09:06:37.588Z,14.73
2022-08-17T09:09:18.935Z,15.21
2022-08-17T09:12:01.022Z,15.12
2022-08-17T09:14:46.730Z,15.58
2022-08-17T09:17:46.101Z,15.19
2022-08-17T09:20:27.509Z,15.14
2022-08-17T09:23:33.637Z,14.86
2022-08-17T09:26:10.774Z,15.36
2022-08-17T09:28:38.760Z,14.31
2022-08-17T09:31:15.925Z,13.93
2022-08-17T09:33:44.412Z,13.20
2022-08-17T09:36:31.121Z,12.95
2022-08-17T09:39:03.857Z,12.62
2022-08-17T09:41:49.520Z,14.05
2022-08-17T09:44:42.953Z,13.26
2022-08-17T09:47:23.071Z,14.49
2022-08-17T09:49:51.809Z,13.95
2022-08-17T09:52:26.260Z,15.85
2022-08-17T09:54:54.644Z,15.54
2022-08-17T09:57:32.132Z,14.83
2022-08-17T10:00:17.980Z,14.89
2022-08-17T10:03:08.379Z,14.50
2022-08-17T10:05:41.349Z,14.13
2022-08-17T10:08:22.892Z,13.77
2022-08-17T10:11:00.085Z,13.77
2022-08-17T10:13:35.821Z,13.63
2022-08-17T10:16:26.124Z,12.70
2022-08-17T10:19:11.495Z,13.96
2022-08-17T10:22:00.933Z,13.42
2022-08-17T10:25:21.598Z,12.80
2022-08-17T10:27:51.481Z,13.13
2022-08-17T10:30:20.203Z,12.62
2022-08-17T10:32:55.337Z,12.31
2022-08-17T10:35:44.071Z,12.55
2022-08-17T10:38:22.428Z,12.90
2022-08-17T10:41:05.713Z,11.42
2022-08-17T10:44:38.182Z,12.19
2022-08-17T10:47:03.556Z,13.00
2022-08-17T10:49:34.279Z,13.72
2022-08-17T10:52:06.115Z,13.16
2022-08-17T10:54:46.822Z,13.61
2022-08-17T10:57:41.974Z,13.09
2022-08-17T11:00:14.908Z,14.10
2022-08-17T11:02:51.355Z,14.85
2022-08-17T11:05:58.848Z,15.02
2022-08-17T11:09:06.927Z,14.87
2022-08-17T11:11:49.955Z,14.53
2022-08-17T11:14:57.992Z,14.76
2022-08-17T11:17:50.564Z,14.44
2022-08-17T11:20:41.297Z,14.74
2022-08-17T11:23:19.712Z,14.19
2022-08-17T11:25:51.522Z,15.01
2022-08-17T11:28:34.280Z,14.88
2022-08-17T11:31:10.310Z,14.50
2022-08-17T11:33:59.895Z,14.30
2022-08-17T11:36:31.542Z,15.19
2022-08-17T11:39:32.841Z,15.02
2022-08-17T11:42:06.345Z,15.33
2022-08-17T11:44:52.701Z,15.39
2022-08-17T11:48:23.838Z,15.78
2022-08-17T11:51:03.565Z,15.49
2022-08-17T11:53:39.197Z,15.23
2022-08-17T11:56:30.088Z,14.91
2022-08-17T11:58:56.737Z,15.57
2022-08-17T12:01:23.206Z,15.40
2022-08-17T12:03:56.885Z,15.40
2022-08-17T12:06:52.374Z,15.71
2022-08-17T12:09:20.078Z,16.12
2022-08-17T12:12:11.202Z,16.13
2022-08-17T12:15:08.215Z,15.25
2022-08-17T12:17:40.417Z,15.80
2022-08-17T12:20:38.773Z,15.64
2022-08-17T12:23:23.445Z,15.44
2022-08-17T12:25:56.325Z,15.70
2022-08-17T12:28:29.045Z,15.41
2022-08-17T12:30:58.424Z,15.41
2022-08-17T12:33:28.459Z,16.37
2022-08-17T12:36:06.113Z,16.21
2022-08-17T12:38:34.667Z,16.39
2022-08-17T12:41:24.729Z,16.38
2022-08-17T12:44:02.258Z,15.65
2022-08-17T12:46:44.823Z,15.92
2022-08-17T12:49:23.865Z,15.21
2022-08-17T12:51:51.392Z,15.87
2022-08-17T12:54:47.402Z,15.49
2022-08-17T12:57:25.975Z,15.63
2022-08-17T12:59:58.511Z,16.50
2022-08-17T13:02:38.075Z,16.34
2022-08-17T13:05:05.276Z,16.66
2022-08-17T13:07:35.209Z,16.14
2022-08-17T13:10:02.339Z,15.86
2022-08-17T13:12:30.994Z,15.73
2022-08-17T13:14:58.134Z,15.03
2022-08-17T13:17:32.952Z,15.71
2022-08-17T13:19:59.635Z,16.09
2022-08-17T13:22:26.846Z,16.93
2022-08-17T13:24:56.260Z,16.72
2022-08-17T13:27:24.369Z,17.16
2022-08-17T13:29:53.858Z,16.80
2022-08-17T13:32:33.575Z,17.11
2022-08-17T13:35:12.492Z,16.79
2022-08-17T13:38:02.572Z,16.74
2022-08-17T13:40:32.331Z,16.64
2022-08-17T13:42:59.019Z,16.75
2022-08-17T13:45:36.246Z,17.50
2022-08-17T13:48:15.067Z,17.87
2022-08-17T13:50:56.956Z,17.80
2022-08-17T13:53:31.151Z,17.15
2022-08-17T13:56:07.421Z,16.60
2022-08-17T13:59:00.307Z,15.83
2022-08-17T14:01:36.895Z,16.20
2022-08-17T14:04:08.811Z,15.26
2022-08-17T14:06:52.557Z,15.63
2022-08-17T14:09:20.274Z,14.90
2022-08-17T14:11:47.843Z,15.11
2022-08-17T14:14:14.599Z,14.87
2022-08-17T14:16:41.854Z,14.76
2022-08-17T14:19:10.164Z,14.81
2022-08-17T14:21:37.510Z,14.85
2022-08-17T14:24:04.357Z,14.66
2022-08-17T14:26:30.969Z,14.61
2022-08-17T14:28:57.571Z,14.68
2022-08-17T14:31:25.021Z,14.58
2022-08-17T14:33:52.154Z,14.67
2022-08-17T14:36:18.793Z,14.59
2022-08-17T14:38:45.401Z,14.41
2022-08-17T14:41:11.977Z,14.29
2022-08-17T14:43:39.918Z,14.31
2022-08-17T14:46:06.629Z,14.37
2022-08-17T14:48:35.063Z,14.31
2022-08-17T14:51:01.673Z,14.12
2022-08-17T14:53:28.273Z,14.29
2022-08-17T14:55:54.938Z,14.13
2022-08-17T14:58:22.427Z,14.26
2022-08-17T15:00:51.057Z,14.28
2022-08-17T15:03:18.381Z,14.26
2022-08-17T15:05:46.823Z,14.50
2022-08-17T15:08:13.476Z,14.60
2022-08-17T15:10:40.143Z,14.58
2022-08-17T15:13:17.257Z,14.94
2022-08-17T15:15:43.860Z,14.89
2022-08-17T15:18:10.565Z,14.68
2022-08-17T15:20:37.164Z,14.64
2022-08-17T15:23:03.837Z,14.48
2022-08-17T15:25:31.973Z,14.59
2022-08-17T15:27:58.853Z,14.47
2022-08-17T15:30:25.919Z,14.69
2022-08-17T15:32:55.096Z,14.74
2022-08-17T15:35:27.525Z,14.49
2022-08-17T15:38:06.235Z,14.49
2022-08-17T15:40:37.372Z,14.83
2022-08-17T15:43:05.950Z,14.67
2022-08-17T15:45:33.666Z,14.92
2022-08-17T15:48:00.320Z,15.12
2022-08-17T15:50:27.015Z,15.11
2022-08-17T15:52:57.901Z,15.14
2022-08-17T15:55:25.039Z,14.95
2022-08-17T15:57:52.285Z,15.05
2022-08-17T16:00:19.231Z,15.17
2022-08-17T16:03:44.507Z,15.14
2022-08-17T16:05:32.502Z,15.18
2022-08-17T16:07:59.884Z,15.32
2022-08-17T16:10:35.295Z,15.38
2022-08-17T16:13:02.447Z,15.61
2022-08-17T16:15:31.251Z,15.79
2022-08-17T16:17:57.925Z,15.72
2022-08-17T16:20:24.591Z,15.69
2022-08-17T16:22:51.521Z,15.73
2022-08-17T16:25:20.390Z,15.78
2022-08-17T16:27:48.563Z,15.84
2022-08-17T16:30:18.248Z,16.00
2022-08-17T16:32:45.018Z,15.69
2022-08-17T16:35:12.069Z,15.73
2022-08-17T16:37:40.309Z,15.76
2022-08-17T16:40:11.796Z,15.82
2022-08-17T16:42:39.601Z,15.90
2022-08-17T16:45:13.100Z,15.89
2022-08-17T16:47:40.147Z,15.96
2022-08-17T16:50:07.433Z,15.96
2022-08-17T16:52:34.194Z,15.98
2022-08-17T16:55:05.701Z,15.96
2022-08-17T16:57:32.328Z,16.14
2022-08-17T16:59:58.994Z,16.05
2022-08-17T17:02:38.782Z,16.06
2022-08-17T17:05:08.275Z,16.18
2022-08-17T17:07:49.805Z,16.07
2022-08-17T17:10:20.056Z,16.28
2022-08-17T17:13:02.808Z,16.42
2022-08-17T17:15:52.108Z,16.27
2022-08-17T17:18:18.723Z,16.33
2022-08-17T17:20:54.919Z,16.40
2022-08-17T17:23:35.333Z,16.46
2022-08-17T17:26:17.100Z,16.55
2022-08-17T17:29:21.295Z,16.72
2022-08-17T17:32:01.911Z,16.91
2022-08-17T17:34:29.779Z,16.96
2022-08-17T17:36:57.881Z,16.88
2022-08-17T17:39:44.206Z,17.06
2022-08-17T17:42:14.241Z,17.18
2022-08-17T17:45:00.079Z,17.26
2022-08-17T17:47:29.577Z,17.82
2022-08-17T17:49:56.222Z,17.87
2022-08-17T17:52:36.374Z,17.85
2022-08-17T17:55:04.860Z,18.48
2022-08-17T17:57:59.404Z,18.17
2022-08-17T18:00:50.616Z,18.24
2022-08-17T18:03:23.265Z,18.16
2022-08-17T18:06:03.967Z,17.94
2022-08-17T18:08:57.750Z,18.18
2022-08-17T18:11:46.384Z,18.50
2022-08-17T18:14:40.247Z,18.36
2022-08-17T18:17:06.952Z,18.46
2022-08-17T18:19:33.553Z,18.24
2022-08-17T18:22:19.836Z,18.18
2022-08-17T18:24:48.238Z,18.42
2022-08-17T18:27:21.087Z,18.42
2022-08-17T18:29:47.973Z,18.80
2022-08-17T18:32:33.818Z,18.83
2022-08-17T18:35:27.832Z,18.87
2022-08-17T18:38:31.000Z,19.16
2022-08-17T18:41:19.217Z,20.20
2022-08-17T18:43:56.110Z,20.88
2022-08-17T18:46:31.477Z,20.67
2022-08-17T18:49:19.929Z,20.62
2022-08-17T18:51:46.623Z,20.46
2022-08-17T18:54:25.347Z,20.82
2022-08-17T18:56:55.990Z,20.72
2022-08-17T18:59:41.266Z,21.19
2022-08-17T19:02:20.594Z,21.00
2022-08-17T19:05:07.892Z,20.89
2022-08-17T19:07:42.316Z,20.89
2022-08-17T19:10:47.433Z,20.87
2022-08-17T19:13:23.985Z,20.76
2022-08-17T19:16:12.095Z,21.57
2022-08-17T19:18:54.029Z,21.49
2022-08-17T19:21:23.534Z,21.37
2022-08-17T19:24:11.701Z,21.17
2022-08-17T19:26:55.119Z,21.95
2022-08-17T19:29:41.553Z,22.78
2022-08-17T19:32:09.161Z,21.76
2022-08-17T19:34:36.290Z,21.81
2022-08-17T19:37:08.988Z,21.87
2022-08-17T19:39:57.997Z,22.89
2022-08-17T19:43:03.322Z,23.21
2022-08-17T19:45:33.630Z,22.81
2022-08-17T19:48:19.849Z,22.81
2022-08-17T19:50:53.219Z,22.98
2022-08-17T19:54:06.995Z,23.21
2022-08-17T19:56:52.424Z,23.16
2022-08-17T19:59:46.316Z,23.07
2022-08-17T20:02:20.203Z,23.75
2022-08-17T20:04:47.290Z,23.00
2022-08-17T20:07:17.650Z,22.92
2022-08-17T20:09:49.410Z,23.24
2022-08-17T20:12:21.094Z,23.07
2022-08-17T20:14:57.343Z,23.32
2022-08-17T20:17:25.136Z,24.42
2022-08-17T20:20:05.195Z,23.92
2022-08-17T20:22:49.368Z,24.21
2022-08-17T20:25:29.861Z,24.93
2022-08-17T20:28:18.125Z,24.96
2022-08-17T20:30:44.757Z,24.47
2022-08-17T20:33:32.175Z,24.20
2022-08-17T20:36:11.072Z,25.01
2022-08-17T20:38:39.500Z,24.84
2022-08-17T20:41:11.747Z,24.77
2022-08-17T20:43:38.338Z,24.58
2022-08-17T20:46:32.965Z,25.48
2022-08-17T20:49:24.204Z,25.49
2022-08-17T20:52:07.761Z,25.68
2022-08-17T20:54:53.630Z,25.73
2022-08-17T20:57:32.592Z,24.71
2022-08-17T21:00:15.434Z,24.73
2022-08-17T21:02:44.518Z,24.70
2022-08-17T21:05:59.793Z,24.75
2022-08-17T21:08:30.562Z,24.73
2022-08-17T21:10:57.824Z,24.87
2022-08-17T21:14:00.413Z,24.90
2022-08-17T21:16:38.777Z,25.15
2022-08-17T21:19:24.200Z,25.56
2022-08-17T21:21:58.055Z,25.71
2022-08-17T21:24:58.485Z,25.95
2022-08-17T21:28:04.217Z,25.92
2022-08-17T21:30:33.773Z,26.01
2022-08-17T21:33:16.579Z,26.08
2022-08-17T21:35:49.393Z,26.33
2022-08-17T21:38:19.483Z,27.15
2022-08-17T21:40:50.086Z,27.72
2022-08-17T21:43:29.338Z,27.07
2022-08-17T21:46:00.810Z,26.92
2022-08-17T21:48:28.260Z,27.09
2022-08-17T21:51:10.522Z,27.09
2022-08-17T21:53:40.457Z,27.53
2022-08-17T21:56:07.524Z,27.71
2022-08-17T21:58:40.374Z,27.68
2022-08-17T22:01:36.790Z,28.26
2022-08-17T22:04:12.633Z,27.84
2022-08-17T22:06:57.238Z,28.00
2022-08-17T22:09:35.786Z,28.14
2022-08-17T22:12:02.305Z,28.77
2022-08-17T22:32:43.858Z,29.68
2022-08-17T22:35:42.955Z,29.32
2022-08-17T22:38:29.940Z,29.10
2022-08-17T22:41:13.697Z,30.10
2022-08-17T22:43:43.672Z,30.23
2022-08-17T22:46:11.504Z,30.00
2022-08-17T22:48:38.085Z,30.06
2022-08-17T22:51:13.857Z,29.98
2022-08-17T22:54:06.969Z,29.77
2022-08-17T22:56:52.107Z,29.08
2022-08-17T22:59:42.382Z,29.18
2022-08-17T23:02:11.879Z,29.18
2022-08-17T23:04:40.135Z,29.53
2022-08-17T23:07:07.030Z,29.89
2022-08-17T23:09:33.918Z,30.24
2022-08-17T23:12:00.503Z,29.40
2022-08-17T23:14:31.489Z,29.45
2022-08-17T23:16:59.288Z,29.81
2022-08-17T23:19:27.319Z,30.32
2022-08-17T23:21:57.156Z,30.76
2022-08-17T23:24:26.592Z,30.68
2022-08-17T23:26:53.998Z,31.08
2022-08-17T23:29:21.551Z,30.75
2022-08-17T23:31:49.210Z,30.97
2022-08-17T23:34:18.571Z,30.62
2022-08-17T23:36:53.177Z,30.61
2022-08-17T23:39:24.707Z,30.71
2022-08-17T23:41:55.513Z,31.07
2022-08-17T23:44:25.021Z,31.49
2022-08-17T23:46:52.031Z,31.19
2022-08-17T23:49:19.196Z,31.42
2022-08-17T23:51:46.415Z,31.01
2022-08-17T23:54:35.511Z,31.49
2022-08-17T23:57:02.377Z,31.75
2022-08-17T23:59:30.147Z,32.51
